Time;durP1;ratioP1;P1;durP2;ratioP2;P2;SDS_P1;SDS_P2;PMS_P1;PMS_P2;Temp;Humidity;BMP_temperature;BMP_pressure;BME280_temperature;BME280_humidity;BME280_pressure;Samples;Min_cycle;Max_cycle;Signal;HPM_P1;HPM_P2
2023/07/12 00:00:21;;;;;;;26.17;15.50;;;;;;;-143.21;66.46;71550.69;5119016;27;20208;-82
2023/07/12 00:02:48;;;;;;;29.45;15.90;;;;;;;-143.21;66.42;71554.66;5115231;27;20191;-81
2023/07/12 00:05:15;;;;;;;27.15;15.80;;;;;;;-143.21;67.15;71560.59;5115009;27;21012;-82
2023/07/12 00:07:45;;;;;;;33.88;16.23;;;;;;;-143.21;67.39;71558.63;5115523;27;20204;-83
2023/07/12 00:10:17;;;;;;;29.00;16.33;;;;;;;-143.21;67.80;71568.53;5111878;28;20268;-83
2023/07/12 00:12:44;;;;;;;24.60;16.10;;;;;;;-143.21;67.48;71570.53;5111493;28;20204;-82
2023/07/12 00:15:12;;;;;;;30.80;15.75;;;;;;;-143.21;67.95;71582.41;5111154;28;20269;-85
2023/07/12 00:17:39;;;;;;;31.10;17.10;;;;;;;-143.21;67.89;71572.50;5111375;27;20663;-84
2023/07/12 00:20:17;;;;;;;37.65;15.55;;;;;;;-143.21;67.98;71572.50;5111304;27;20215;-84
2023/07/12 00:22:46;;;;;;;24.80;14.10;;;;;;;-143.21;67.68;71570.53;5111325;27;20283;-84
2023/07/12 00:25:13;;;;;;;27.10;13.52;;;;;;;-143.21;67.92;71570.53;5111302;28;20216;-84
2023/07/12 00:27:40;;;;;;;21.33;13.18;;;;;;;-143.21;67.64;71566.56;5110272;27;20227;-84
2023/07/12 00:30:14;;;;;;;23.35;13.15;;;;;;;-143.21;67.88;71566.56;5113759;27;20203;-84
2023/07/12 00:32:41;;;;;;;30.00;14.52;;;;;;;-143.21;68.24;71570.53;5113589;27;20219;-83
2023/07/12 00:35:13;;;;;;;21.63;13.25;;;;;;;-143.21;68.56;71576.47;5106598;27;20562;-83
2023/07/12 00:37:40;;;;;;;23.58;14.32;;;;;;;-143.21;68.33;71576.47;5114107;27;20204;-83
2023/07/12 00:40:20;;;;;;;23.67;13.45;;;;;;;-143.21;68.26;71574.47;5111049;27;20203;-83
2023/07/12 00:42:55;;;;;;;18.98;12.43;;;;;;;-143.21;68.03;71566.56;5110709;28;20195;-83
2023/07/12 00:45:21;;;;;;;22.60;12.82;;;;;;;-143.21;68.23;71574.47;5117141;27;20199;-83
2023/07/12 00:47:50;;;;;;;19.20;12.73;;;;;;;-143.21;67.77;71578.44;5111465;27;20232;-83
2023/07/12 00:50:19;;;;;;;20.35;12.32;;;;;;;-143.21;67.71;71578.44;5111371;27;20195;-83
2023/07/12 00:52:47;;;;;;;16.77;11.68;;;;;;;-143.21;67.62;71582.41;5110375;27;20192;-83
2023/07/12 00:55:49;;;;;;;18.17;11.48;;;;;;;-143.21;67.56;71578.44;5114058;27;20633;-82
2023/07/12 00:58:18;;;;;;;17.10;11.93;;;;;;;-143.21;67.62;71574.47;5112741;27;20203;-82
2023/07/12 01:00:45;;;;;;;22.88;11.77;;;;;;;-143.21;67.37;71580.44;5114337;27;20206;-82
2023/07/12 01:03:14;;;;;;;16.67;11.23;;;;;;;-143.21;66.95;71582.41;5117587;27;20209;-83
2023/07/12 01:05:42;;;;;;;16.75;11.55;;;;;;;-143.21;67.38;71572.50;5110044;28;20685;-81
2023/07/12 01:08:11;;;;;;;14.80;11.00;;;;;;;-143.21;66.89;71582.41;5113961;27;20224;-83
2023/07/12 01:10:38;;;;;;;23.13;11.80;;;;;;;-143.21;67.49;71582.41;5110097;28;20200;-82
2023/07/12 01:13:05;;;;;;;19.65;11.23;;;;;;;-143.21;67.56;71584.41;5110327;28;20214;-82
2023/07/12 01:15:34;;;;;;;18.23;11.77;;;;;;;-143.21;67.49;71584.41;5109536;28;20207;-81
2023/07/12 01:18:01;;;;;;;17.48;11.38;;;;;;;-143.21;67.07;71578.44;5113435;27;20246;-80
2023/07/12 01:20:34;;;;;;;19.98;12.10;;;;;;;-143.21;67.56;71584.41;5113401;27;20257;-81
2023/07/12 01:23:03;;;;;;;21.25;11.45;;;;;;;-143.21;67.88;71588.38;5110738;28;20215;-80
2023/07/12 01:25:36;;;;;;;20.23;12.18;;;;;;;-143.21;68.04;71582.41;5114749;27;20260;-81
2023/07/12 01:28:04;;;;;;;13.32;11.57;;;;;;;-143.21;68.08;71588.38;5110006;28;20207;-81
2023/07/12 01:30:31;;;;;;;16.27;11.75;;;;;;;-143.21;68.33;71594.31;5110208;28;20195;-81
2023/07/12 01:32:58;;;;;;;19.20;12.77;;;;;;;-143.21;68.38;71600.25;5113865;27;20199;-82
2023/07/12 01:35:25;;;;;;;20.60;12.43;;;;;;;-143.21;68.45;71594.31;5114203;27;20211;-82
2023/07/12 01:37:52;;;;;;;20.42;11.73;;;;;;;-143.21;68.74;71602.25;5109826;27;20888;-82
2023/07/12 01:40:20;;;;;;;14.48;11.85;;;;;;;-143.21;68.60;71616.13;5111757;27;20215;-82
2023/07/12 01:42:47;;;;;;;15.45;12.10;;;;;;;-143.21;68.94;71614.13;5110411;27;20651;-82
2023/07/12 01:45:14;;;;;;;18.88;12.73;;;;;;;-143.21;69.45;71620.09;5111080;27;20206;-82
2023/07/12 01:47:41;;;;;;;18.70;12.60;;;;;;;-143.21;69.74;71626.03;5113890;28;20214;-82
2023/07/12 01:50:09;;;;;;;18.88;12.38;;;;;;;-143.21;69.89;71635.94;5106919;28;20698;-82
2023/07/12 01:52:35;;;;;;;20.73;12.32;;;;;;;-143.21;69.77;71630.00;5109597;28;20207;-81
2023/07/12 01:55:02;;;;;;;23.67;12.57;;;;;;;-143.21;69.90;71630.00;5116083;27;20203;-81
2023/07/12 01:57:31;;;;;;;20.30;12.15;;;;;;;-143.21;70.03;71631.97;5106168;28;20290;-81
2023/07/12 01:59:57;;;;;;;26.08;13.38;;;;;;;-143.21;70.29;71635.94;5109337;28;20269;-81
2023/07/12 02:02:28;;;;;;;17.92;12.10;;;;;;;-143.21;70.21;71630.00;5115846;28;20737;-81
2023/07/12 02:04:55;;;;;;;18.55;12.25;;;;;;;-143.21;70.47;71647.84;5109243;27;20213;-81
2023/07/12 02:07:21;;;;;;;15.27;11.43;;;;;;;-143.21;70.73;71647.84;5109326;28;20211;-81
2023/07/12 02:10:13;;;;;;;21.73;12.50;;;;;;;-143.21;70.56;71651.81;5108933;28;20215;-81
2023/07/12 02:12:42;;;;;;;19.45;12.05;;;;;;;-143.21;70.55;71645.88;5113071;28;20203;-82
2023/07/12 02:15:10;;;;;;;19.58;11.88;;;;;;;-143.21;70.28;71655.78;5108737;28;20280;-82
2023/07/12 02:17:37;;;;;;;21.95;11.77;;;;;;;-143.21;70.18;71655.78;5108788;28;20187;-81
2023/07/12 02:20:05;;;;;;;13.38;11.65;;;;;;;-143.21;70.21;71657.75;5109515;28;20204;-82
2023/07/12 02:22:34;;;;;;;18.60;11.60;;;;;;;-143.21;70.46;71663.72;5109735;28;20204;-82
2023/07/12 02:25:01;;;;;;;20.58;12.00;;;;;;;-143.21;70.82;71669.66;5106221;28;20211;-82
2023/07/12 02:27:28;;;;;;;25.92;11.52;;;;;;;-143.21;70.89;71669.66;5109856;28;20196;-82
2023/07/12 02:29:56;;;;;;;19.52;12.30;;;;;;;-143.21;70.96;71671.63;5109121;28;20231;-82
2023/07/12 02:32:25;;;;;;;22.25;12.10;;;;;;;-143.21;70.76;71675.59;5107503;28;20207;-82
2023/07/12 02:34:52;;;;;;;19.60;11.85;;;;;;;-143.21;70.55;71677.59;5111054;28;20294;-82
2023/07/12 02:37:19;;;;;;;16.73;11.70;;;;;;;-143.21;70.84;71685.50;5109594;28;20195;-83
2023/07/12 02:39:46;;;;;;;18.00;12.18;;;;;;;-143.21;70.92;71681.56;5111554;28;20793;-82
2023/07/12 02:42:13;;;;;;;20.17;12.13;;;;;;;-143.21;71.15;71685.50;5112149;28;20241;-82
2023/07/12 02:44:41;;;;;;;19.05;12.00;;;;;;;-143.21;71.18;71687.50;5109228;28;20208;-82
2023/07/12 02:47:10;;;;;;;20.42;11.98;;;;;;;-143.21;71.09;71687.50;5110768;28;20249;-83
2023/07/12 02:49:37;;;;;;;18.92;12.45;;;;;;;-143.21;70.80;71683.53;5116186;27;20228;-82
2023/07/12 02:52:05;;;;;;;18.30;12.43;;;;;;;-143.21;70.97;71689.47;5116881;27;20608;-83
2023/07/12 02:54:32;;;;;;;24.48;12.88;;;;;;;-143.21;71.03;71693.44;5113455;28;20200;-83
2023/07/12 02:56:59;;;;;;;25.02;11.98;;;;;;;-143.21;71.03;71697.41;5113742;28;20207;-83
2023/07/12 02:59:27;;;;;;;20.35;12.23;;;;;;;-143.21;70.63;71695.44;5113072;27;20208;-83
2023/07/12 03:01:54;;;;;;;24.63;12.70;;;;;;;-143.21;70.67;71695.44;5112363;28;20223;-83
2023/07/12 03:04:23;;;;;;;17.52;12.02;;;;;;;-143.21;70.59;71697.41;5114952;27;20681;-83
2023/07/12 03:06:50;;;;;;;19.35;12.07;;;;;;;-143.21;70.90;71707.31;5109848;28;20919;-83
2023/07/12 03:09:17;;;;;;;17.55;12.10;;;;;;;-143.21;71.25;71711.28;5112926;28;20224;-83
2023/07/12 03:11:46;;;;;;;19.40;11.70;;;;;;;-143.21;71.68;71713.28;5112344;27;20212;-83
2023/07/12 03:14:15;;;;;;;21.15;12.25;;;;;;;-143.21;71.67;71707.31;5113124;27;20230;-83
2023/07/12 03:16:42;;;;;;;22.30;12.95;;;;;;;-143.21;71.80;71717.25;5115797;27;20235;-84
2023/07/12 03:19:10;;;;;;;21.35;11.90;;;;;;;-143.21;72.03;71729.13;5112380;28;20663;-84
2023/07/12 03:21:38;;;;;;;15.05;11.63;;;;;;;-143.21;72.42;71727.16;5111637;28;20199;-83
2023/07/12 03:24:06;;;;;;;18.55;11.57;;;;;;;-143.21;72.02;71727.16;5112406;28;20738;-83
2023/07/12 03:26:33;;;;;;;15.98;12.32;;;;;;;-143.21;71.96;71723.19;5111563;27;20279;-82
2023/07/12 03:29:01;;;;;;;28.75;12.10;;;;;;;-143.21;71.88;71723.19;5108895;27;20228;-82
2023/07/12 03:31:29;;;;;;;28.27;12.13;;;;;;;-143.21;71.71;71717.25;5113613;27;20203;-83
2023/07/12 03:33:56;;;;;;;21.05;11.57;;;;;;;-143.21;72.10;71725.16;5111364;28;20588;-81
2023/07/12 03:36:25;;;;;;;22.58;12.15;;;;;;;-143.21;72.16;71733.09;5113195;27;20217;-80
2023/07/12 03:38:53;;;;;;;22.92;12.80;;;;;;;-143.21;72.09;71731.13;5117128;27;20303;-81
2023/07/12 03:41:21;;;;;;;24.70;11.95;;;;;;;-143.21;72.07;71735.09;5111356;27;20986;-81
2023/07/12 03:43:49;;;;;;;20.10;11.30;;;;;;;-143.21;72.31;71737.06;5111034;27;20212;-81
2023/07/12 03:46:16;;;;;;;24.73;12.98;;;;;;;-143.21;71.63;71731.13;5112627;27;20730;-80
2023/07/12 03:48:43;;;;;;;24.02;11.98;;;;;;;-143.21;71.83;71735.09;5110773;27;20312;-79
2023/07/12 03:51:11;;;;;;;16.08;11.68;;;;;;;-143.21;71.95;71739.06;5110844;28;20230;-80
2023/07/12 03:53:38;;;;;;;20.23;12.43;;;;;;;-143.21;72.01;71739.06;5110397;27;20277;-79
2023/07/12 03:56:07;;;;;;;25.10;13.43;;;;;;;-143.21;72.10;71743.00;5113343;27;20916;-81
2023/07/12 03:58:36;;;;;;;22.02;14.85;;;;;;;-143.21;71.75;71745.00;5113695;27;20203;-79
2023/07/12 04:01:05;;;;;;;24.73;13.15;;;;;;;-143.21;71.15;71737.06;5107524;27;20204;-80
2023/07/12 04:03:33;;;;;;;21.80;12.98;;;;;;;-143.21;71.00;71729.13;5110874;28;20207;-80
2023/07/12 04:06:00;;;;;;;23.25;13.50;;;;;;;-143.21;71.05;71735.09;5115382;27;20200;-80
2023/07/12 04:08:26;;;;;;;19.98;12.73;;;;;;;-143.21;71.33;71729.13;5110674;28;20208;-79
2023/07/12 04:10:57;;;;;;;18.33;12.68;;;;;;;-143.21;71.39;71731.13;5114215;27;20238;-80
2023/07/12 04:13:26;;;;;;;20.50;13.23;;;;;;;-143.21;71.38;71729.13;5111017;28;20208;-81
2023/07/12 04:15:54;;;;;;;19.00;13.63;;;;;;;-143.21;71.00;71725.16;5110210;28;20212;-82
2023/07/12 04:18:21;;;;;;;25.83;13.40;;;;;;;-143.21;71.31;71725.16;5116243;27;20314;-81
2023/07/12 04:20:48;;;;;;;24.80;12.93;;;;;;;-143.21;71.36;71717.25;5113149;27;20204;-81
2023/07/12 04:23:15;;;;;;;25.65;13.55;;;;;;;-143.21;71.57;71713.28;5112056;27;20206;-81
2023/07/12 04:25:42;;;;;;;22.58;13.50;;;;;;;-143.21;70.92;71705.34;5114277;27;20204;-81
2023/07/12 04:28:09;;;;;;;25.15;13.82;;;;;;;-143.21;71.18;71707.31;5112385;27;20215;-81
2023/07/12 04:30:38;;;;;;;26.30;13.90;;;;;;;-143.21;71.33;71709.31;5113915;27;20224;-82
2023/07/12 04:33:05;;;;;;;25.30;13.70;;;;;;;-143.21;71.43;71697.41;5108723;27;20579;-80
2023/07/12 04:35:32;;;;;;;21.27;13.55;;;;;;;-143.21;71.43;71693.44;5111647;27;20200;-81
2023/07/12 04:37:59;;;;;;;24.70;13.80;;;;;;;-143.21;71.74;71697.41;5114297;27;20202;-80
2023/07/12 04:40:26;;;;;;;23.00;14.10;;;;;;;-143.21;71.77;71697.41;5113521;27;20271;-80
2023/07/12 04:42:53;;;;;;;21.75;12.98;;;;;;;-143.21;71.89;71701.38;5119336;27;20207;-81
2023/07/12 04:45:21;;;;;;;19.35;13.10;;;;;;;-143.21;72.20;71709.31;5120830;27;20216;-80
2023/07/12 04:47:50;;;;;;;20.67;14.15;;;;;;;-143.21;71.87;71699.41;5111657;27;20240;-80
2023/07/12 04:50:16;;;;;;;26.05;13.07;;;;;;;-143.21;71.84;71701.38;5113467;27;20218;-82
2023/07/12 04:52:43;;;;;;;21.67;13.20;;;;;;;-143.21;71.64;71697.41;5109619;28;20203;-82
2023/07/12 04:55:23;;;;;;;18.80;13.18;;;;;;;-143.21;71.54;71697.41;5113074;27;20195;-80
2023/07/12 04:57:50;;;;;;;21.75;13.25;;;;;;;-143.21;71.49;71689.47;5112806;27;20200;-82
2023/07/12 05:00:17;;;;;;;23.33;14.13;;;;;;;-143.21;70.81;71681.56;5111494;27;20196;-80
2023/07/12 05:02:44;;;;;;;19.63;13.88;;;;;;;-143.21;70.47;71677.59;5112621;27;20199;-80
2023/07/12 05:05:12;;;;;;;25.40;14.77;;;;;;;-143.21;70.94;71671.63;5118526;27;20211;-80
2023/07/12 05:07:39;;;;;;;26.92;14.88;;;;;;;-143.21;70.63;71671.63;5112816;27;20207;-81
2023/07/12 05:10:07;;;;;;;21.85;14.77;;;;;;;-143.21;71.05;71663.72;5111278;27;20220;-81
2023/07/12 05:12:35;;;;;;;32.15;15.30;;;;;;;-143.21;70.99;71655.78;5109677;28;20211;-80
2023/07/12 05:15:02;;;;;;;22.58;14.00;;;;;;;-143.21;70.97;71651.81;5109127;27;20223;-79
2023/07/12 05:17:29;;;;;;;23.45;15.13;;;;;;;-143.21;71.14;71643.88;5116673;27;20199;-80
2023/07/12 05:19:56;;;;;;;21.08;14.32;;;;;;;-143.21;70.75;71639.91;5112926;27;20600;-80
2023/07/12 05:22:25;;;;;;;23.08;15.73;;;;;;;-143.21;70.48;71635.94;5109410;28;20210;-80
2023/07/12 05:24:53;;;;;;;22.92;15.35;;;;;;;-143.21;70.25;71637.94;5109262;28;20207;-80
2023/07/12 05:27:23;;;;;;;22.15;15.38;;;;;;;-143.21;69.75;71630.00;5112164;27;20208;-81
2023/07/12 05:29:50;;;;;;;20.83;14.52;;;;;;;-143.21;69.28;71622.06;5113336;27;20241;-80
2023/07/12 05:32:17;;;;;;;18.80;14.23;;;;;;;-143.21;69.13;71614.13;5111092;27;20195;-80
2023/07/12 05:34:44;;;;;;;26.63;15.63;;;;;;;-143.21;69.22;71616.13;5108877;27;20211;-80
2023/07/12 05:37:11;;;;;;;17.38;12.98;;;;;;;-143.21;68.76;71612.16;5109520;27;20215;-81
2023/07/12 05:39:41;;;;;;;27.20;14.65;;;;;;;-143.21;68.29;71604.22;5113564;27;20252;-81
2023/07/12 05:42:08;;;;;;;22.92;14.43;;;;;;;-143.21;68.19;71598.28;5112565;27;20231;-80
2023/07/12 05:44:35;;;;;;;20.35;14.30;;;;;;;-143.21;68.45;71592.31;5111859;27;20576;-81
2023/07/12 05:47:02;;;;;;;28.08;17.17;;;;;;;-143.21;68.17;71588.38;5106756;28;20207;-80
2023/07/12 05:49:28;;;;;;;25.58;16.58;;;;;;;-143.21;67.38;71578.44;5105844;28;21018;-80
2023/07/12 05:51:57;;;;;;;27.50;16.40;;;;;;;-143.21;67.65;71576.47;5109368;27;20207;-81
2023/07/12 05:54:25;;;;;;;27.92;15.90;;;;;;;-143.21;67.70;71578.44;5112758;27;20211;-80
2023/07/12 05:56:53;;;;;;;26.13;15.90;;;;;;;-143.21;67.53;71572.50;5119383;27;20196;-82
2023/07/12 05:59:21;;;;;;;21.95;15.85;;;;;;;-143.21;67.77;71574.47;5108228;28;20209;-80
2023/07/12 06:01:48;;;;;;;28.95;16.10;;;;;;;-143.21;68.16;71566.56;5108478;28;20872;-81
2023/07/12 06:04:17;;;;;;;29.85;16.70;;;;;;;-143.21;68.33;71554.66;5115385;28;20196;-81
2023/07/12 06:06:44;;;;;;;25.42;15.32;;;;;;;-143.21;68.05;71550.69;5112472;28;20199;-81
2023/07/12 06:09:12;;;;;;;31.98;15.50;;;;;;;-143.21;67.63;71546.72;5112755;28;20221;-81
2023/07/12 06:11:41;;;;;;;22.77;15.75;;;;;;;-143.21;66.30;71536.81;5122759;28;20608;-81
2023/07/12 06:14:10;;;;;;;23.95;15.68;;;;;;;-143.21;66.08;71526.91;5113060;28;20225;-81
2023/07/12 06:16:36;;;;;;;25.60;15.77;;;;;;;-143.21;65.48;71513.03;5110939;27;20195;-81
2023/07/12 06:19:04;;;;;;;25.98;15.40;;;;;;;-143.21;65.41;71515.00;5108964;28;20204;-80
2023/07/12 06:21:31;;;;;;;28.80;15.32;;;;;;;-143.21;65.67;71507.06;5109807;28;20646;-80
2023/07/12 06:23:59;;;;;;;19.95;14.80;;;;;;;-143.21;64.49;71503.09;5116483;27;20218;-80
2023/07/12 06:26:27;;;;;;;24.10;14.68;;;;;;;-143.21;63.03;71499.13;5120429;27;20231;-79
2023/07/12 06:28:54;;;;;;;22.67;13.65;;;;;;;-143.21;63.22;71493.19;5123437;27;20306;-80
2023/07/12 06:31:22;;;;;;;23.98;14.65;;;;;;;-143.21;62.91;71487.25;5116042;27;21236;-81
2023/07/12 06:33:49;;;;;;;19.83;13.20;;;;;;;-143.21;63.14;71483.28;5122807;27;20207;-81
2023/07/12 06:36:16;;;;;;;27.75;14.48;;;;;;;-143.21;63.24;71475.34;5110078;27;20674;-81
2023/07/12 06:38:42;;;;;;;18.77;13.15;;;;;;;-143.21;62.79;71461.47;5114851;27;20203;-81
2023/07/12 06:41:09;;;;;;;25.92;13.88;;;;;;;-143.21;62.93;71453.53;5112062;28;20690;-80
2023/07/12 06:43:36;;;;;;;19.58;13.63;;;;;;;-143.21;62.21;71453.53;5111321;27;20199;-79
2023/07/12 06:46:03;;;;;;;20.33;13.85;;;;;;;-143.21;61.99;71439.66;5111685;27;20208;-79
2023/07/12 06:48:32;;;;;;;27.27;13.65;;;;;;;-143.21;61.82;71429.75;5110715;27;20230;-79
2023/07/12 06:50:59;;;;;;;22.02;12.27;;;;;;;-143.21;61.69;71427.75;5111994;27;20318;-81
2023/07/12 06:53:27;;;;;;;17.27;10.07;;;;;;;-143.21;61.60;71415.88;5114339;27;20207;-80
2023/07/12 06:55:54;;;;;;;15.73;12.13;;;;;;;-143.21;62.74;71392.06;5114198;27;20327;-80
2023/07/12 06:58:21;;;;;;;19.05;12.48;;;;;;;-143.21;61.03;71384.16;5116392;27;20808;-80
2023/07/12 07:00:48;;;;;;;25.45;11.75;;;;;;;-143.21;61.46;71374.22;5112196;27;20196;-81
2023/07/12 07:03:16;;;;;;;21.17;12.35;;;;;;;-143.21;60.86;71368.28;5112763;27;20199;-81
2023/07/12 07:05:45;;;;;;;26.20;12.27;;;;;;;-143.21;60.92;71358.38;5108065;27;20204;-81
2023/07/12 07:08:13;;;;;;;20.50;12.07;;;;;;;-143.21;60.36;71356.38;5113140;27;20200;-81
2023/07/12 07:10:40;;;;;;;22.13;13.23;;;;;;;-143.21;60.15;71352.44;5114815;27;20216;-81
2023/07/12 07:13:07;;;;;;;15.50;12.23;;;;;;;-143.21;59.63;71340.53;5112223;27;20204;-81
2023/07/12 07:15:34;;;;;;;19.55;12.95;;;;;;;-143.21;59.29;71334.59;5111473;27;20200;-80
2023/07/12 07:18:03;;;;;;;23.00;13.32;;;;;;;-143.21;58.71;71320.69;5114206;27;20207;-79
2023/07/12 07:20:30;;;;;;;22.73;13.43;;;;;;;-143.21;58.58;71316.75;5106364;27;20234;-79
2023/07/12 07:22:58;;;;;;;23.90;12.23;;;;;;;-143.21;58.87;71304.84;5113664;27;20192;-80
2023/07/12 07:25:27;;;;;;;19.00;11.52;;;;;;;-143.21;59.74;71294.94;5117289;27;20195;-79
2023/07/12 07:27:56;;;;;;;20.50;13.25;;;;;;;-143.21;58.66;71279.06;5110289;27;21579;-79
2023/07/12 07:30:23;;;;;;;26.17;13.38;;;;;;;-143.21;57.44;71263.22;5114417;27;20227;-79
2023/07/12 07:32:53;;;;;;;18.55;13.02;;;;;;;-143.21;57.29;71261.22;5115654;27;20208;-79
2023/07/12 07:35:23;;;;;;;18.02;13.43;;;;;;;-143.21;56.71;71247.34;5111776;27;20295;-80
2023/07/12 07:37:51;;;;;;;34.10;13.80;;;;;;;-143.21;56.39;71239.41;5114825;27;20219;-79
2023/07/12 07:40:19;;;;;;;21.00;12.90;;;;;;;-143.21;56.71;71239.41;5115026;27;20200;-79
2023/07/12 07:42:46;;;;;;;22.90;12.52;;;;;;;-143.21;57.71;71237.44;5113001;27;20204;-79
2023/07/12 07:45:14;;;;;;;23.63;12.68;;;;;;;-143.21;57.77;71229.50;5116574;27;20215;-79
2023/07/12 07:47:40;;;;;;;16.98;12.90;;;;;;;-143.21;57.92;71213.66;5111594;27;20284;-80
2023/07/12 07:50:08;;;;;;;21.33;12.20;;;;;;;-143.21;57.77;71195.81;5113594;27;20682;-80
2023/07/12 07:52:38;;;;;;;13.40;9.18;;;;;;;-143.21;57.17;71181.94;5118717;27;20203;-80
2023/07/12 07:55:06;;;;;;;16.23;10.75;;;;;;;-143.21;57.15;71168.06;5113990;27;20196;-81
2023/07/12 07:57:34;;;;;;;22.70;13.35;;;;;;;-143.21;56.58;71162.09;5114229;27;20658;-78
2023/07/12 08:00:05;;;;;;;22.83;12.73;;;;;;;-143.21;56.35;71158.13;5113487;27;20191;-78
2023/07/12 08:02:31;;;;;;;28.38;12.82;;;;;;;-143.21;56.07;71158.13;5116891;27;20223;-79
2023/07/12 08:04:59;;;;;;;20.35;14.35;;;;;;;-143.21;55.60;71162.09;5115566;27;20203;-79
2023/07/12 08:07:26;;;;;;;19.20;13.25;;;;;;;-143.21;57.52;71156.16;5116017;27;20206;-79
2023/07/12 08:09:53;;;;;;;23.63;13.70;;;;;;;-143.21;56.24;71152.19;5114536;27;20208;-80
2023/07/12 08:12:20;;;;;;;17.65;12.93;;;;;;;-143.21;55.73;71134.34;5112857;27;20690;-82
2023/07/12 08:14:49;;;;;;;25.55;13.07;;;;;;;-143.21;54.67;71110.56;5118130;27;20195;-79
2023/07/12 08:17:16;;;;;;;20.35;13.27;;;;;;;-143.21;54.44;71100.66;5115847;27;20677;-79
2023/07/12 08:19:42;;;;;;;21.85;13.27;;;;;;;-143.21;54.35;71088.75;5116710;27;20681;-79
2023/07/12 08:22:09;;;;;;;20.17;11.70;;;;;;;-143.21;54.72;71061.00;5118391;27;20211;-81
2023/07/12 08:24:36;;;;;;;23.38;11.93;;;;;;;-143.21;54.56;71043.16;5114166;27;20291;-80
2023/07/12 08:27:06;;;;;;;19.92;11.77;;;;;;;-143.21;53.79;71023.34;5110814;28;20588;-82
2023/07/12 08:29:33;;;;;;;19.42;12.65;;;;;;;-143.21;53.43;71003.50;5117474;27;20208;-80
2023/07/12 08:32:01;;;;;;;19.38;11.68;;;;;;;-143.21;53.21;70981.69;5114386;27;20222;-79
2023/07/12 08:34:28;;;;;;;20.80;11.93;;;;;;;-143.21;53.01;70969.81;5122544;27;20199;-79
2023/07/12 08:36:55;;;;;;;17.55;12.82;;;;;;;-143.21;52.66;70942.06;5120249;27;20218;-79
2023/07/12 08:39:23;;;;;;;19.08;11.50;;;;;;;-143.21;52.38;70940.06;5110750;28;20196;-79
2023/07/12 08:41:51;;;;;;;19.05;11.63;;;;;;;-143.21;52.38;70928.19;5112260;27;20290;-79
2023/07/12 08:44:18;;;;;;;18.25;12.68;;;;;;;-143.21;52.41;70926.19;5121917;27;20192;-80
2023/07/12 08:46:52;;;;;;;18.35;11.98;;;;;;;-143.21;52.80;70910.34;5112547;28;20283;-80
2023/07/12 08:49:21;;;;;;;18.45;11.73;;;;;;;-143.21;52.33;70906.38;5115937;27;20729;-79
2023/07/12 08:51:48;;;;;;;19.92;11.63;;;;;;;-143.21;52.88;70894.47;5111868;28;20220;-80
2023/07/12 08:54:23;;;;;;;21.42;11.65;;;;;;;-143.21;51.25;70880.59;5122551;27;20278;-80
2023/07/12 08:56:51;;;;;;;22.67;12.70;;;;;;;-143.21;51.45;70882.59;5122280;27;20195;-80
2023/07/12 08:59:19;;;;;;;22.80;12.20;;;;;;;-143.21;51.54;70872.66;5112007;28;20192;-80
2023/07/12 09:01:49;;;;;;;23.02;12.32;;;;;;;-143.21;52.07;70866.72;5111721;28;20204;-78
2023/07/12 09:04:25;;;;;;;19.52;10.95;;;;;;;-143.21;50.64;70848.88;5121902;27;20268;-80
2023/07/12 09:06:55;;;;;;;19.40;11.93;;;;;;;-143.21;50.33;70829.06;5127367;27;20560;-79
2023/07/12 09:09:23;;;;;;;15.70;11.73;;;;;;;-143.21;49.96;70819.16;5105720;28;20306;-79
2023/07/12 09:11:50;;;;;;;18.73;11.13;;;;;;;-143.21;50.06;70811.22;5124561;27;20610;-79
2023/07/12 09:14:18;;;;;;;18.42;11.75;;;;;;;-143.21;50.02;70787.44;5111522;28;20789;-79
2023/07/12 09:16:48;;;;;;;15.25;11.35;;;;;;;-143.21;50.05;70765.63;5111418;28;20207;-79
2023/07/12 09:19:16;;;;;;;20.75;10.90;;;;;;;-143.21;49.37;70755.72;5111720;28;20188;-80
2023/07/12 09:21:50;;;;;;;14.85;10.73;;;;;;;-143.21;49.40;70727.97;5111882;28;20211;-80
2023/07/12 09:24:22;;;;;;;17.13;11.30;;;;;;;-143.21;49.34;70716.06;5113737;27;20223;-83
2023/07/12 09:26:50;;;;;;;14.48;9.60;;;;;;;-143.21;47.31;70698.22;5117159;27;20602;-81
2023/07/12 09:29:22;;;;;;;16.77;11.05;;;;;;;-143.21;47.18;70686.34;5111398;28;20226;-82
2023/07/12 09:31:51;;;;;;;16.65;10.23;;;;;;;-143.21;47.37;70680.38;5111871;28;20616;-80
2023/07/12 09:34:22;;;;;;;21.55;10.43;;;;;;;-143.21;47.29;70670.47;5113183;27;20203;-81
2023/07/12 09:37:01;;;;;;;18.55;10.98;;;;;;;-143.21;47.61;70662.56;5112349;28;20172;-82
2023/07/12 09:39:28;;;;;;;19.20;10.32;;;;;;;-143.21;47.32;70648.69;5121597;27;20264;-81
2023/07/12 09:41:58;;;;;;;16.08;10.27;;;;;;;-143.21;47.38;70634.81;5132470;27;20187;-81
2023/07/12 09:44:30;;;;;;;14.18;9.93;;;;;;;-143.21;46.93;70630.84;5123177;27;20196;-83
2023/07/12 09:47:03;;;;;;;19.45;10.07;;;;;;;-143.21;46.66;70614.97;5112240;28;20672;-82
2023/07/12 09:49:39;;;;;;;15.73;9.45;;;;;;;-143.21;45.65;70597.13;5111860;28;20235;-81
2023/07/12 09:52:15;;;;;;;20.35;9.50;;;;;;;-143.21;44.88;70585.25;5111158;28;20215;-82
2023/07/12 09:54:51;;;;;;;15.55;8.77;;;;;;;-143.21;44.61;70577.31;5122563;27;20197;-84
2023/07/12 09:57:22;;;;;;;13.13;9.23;;;;;;;-143.21;42.92;70569.38;5117614;27;20203;-84
2023/07/12 10:00:06;;;;;;;16.30;9.23;;;;;;;-143.21;43.06;70565.44;5118618;27;20191;-86
2023/07/12 10:02:41;;;;;;;14.68;8.50;;;;;;;-143.21;41.77;70557.50;5112048;28;20641;-83
2023/07/12 10:05:12;;;;;;;16.15;8.30;;;;;;;-143.21;42.21;70531.72;5111785;28;20191;-89
2023/07/12 10:07:52;;;;;;;12.95;8.27;;;;;;;-143.21;41.62;70515.88;5112136;28;20695;-88
2023/07/12 10:10:25;;;;;;;17.42;8.90;;;;;;;-143.21;41.59;70490.09;5112427;28;20188;-85
2023/07/12 10:13:01;;;;;;;14.80;8.70;;;;;;;-143.21;41.33;70472.25;5111676;28;20254;-85
2023/07/12 10:15:33;;;;;;;11.18;8.32;;;;;;;-143.21;41.02;70452.44;5128289;28;20234;-90
2023/07/12 10:18:00;;;;;;;12.93;8.02;;;;;;;-143.21;39.02;70434.59;5134920;27;20234;-87
2023/07/12 10:20:27;;;;;;;13.00;7.78;;;;;;;-143.21;39.83;70426.69;5135736;28;20195;-88
2023/07/12 10:22:56;;;;;;;13.48;7.90;;;;;;;-143.21;39.54;70418.75;5137842;28;20187;-92
2023/07/12 10:25:27;;;;;;;12.05;8.02;;;;;;;-143.21;39.54;70398.94;5123530;28;20203;-89
2023/07/12 10:28:01;;;;;;;12.13;8.07;;;;;;;-143.21;39.18;70391.00;5111911;28;20200;-87
2023/07/12 10:30:30;;;;;;;11.45;7.97;;;;;;;-143.21;38.21;70381.09;5111457;28;20189;-87
2023/07/12 10:33:02;;;;;;;10.85;7.60;;;;;;;-143.21;38.08;70365.25;5110953;28;20230;-80
2023/07/12 10:35:41;;;;;;;11.82;7.40;;;;;;;-143.21;38.44;70371.19;5110647;28;20685;-81
2023/07/12 10:38:14;;;;;;;9.38;7.47;;;;;;;-143.21;38.57;70351.38;5110989;28;20184;-80
2023/07/12 10:40:48;;;;;;;21.67;7.72;;;;;;;-143.21;39.46;70333.53;5111490;28;20204;-80
2023/07/12 10:43:21;;;;;;;13.10;7.20;;;;;;;-143.21;39.07;70323.63;5110686;28;20644;-80
2023/07/12 10:45:50;;;;;;;9.32;7.10;;;;;;;-143.21;38.19;70317.66;5110842;28;20189;-81
2023/07/12 10:48:23;;;;;;;10.75;7.60;;;;;;;-143.21;38.31;70293.88;5110322;28;20239;-83
2023/07/12 10:50:54;;;;;;;16.48;7.97;;;;;;;-143.21;38.28;70287.94;5110810;28;20192;-82
2023/07/12 10:53:25;;;;;;;11.40;7.65;;;;;;;-143.21;37.29;70274.06;5110583;28;20195;-81
2023/07/12 10:56:17;;;;;;;11.38;7.28;;;;;;;-143.21;36.05;70266.13;5124652;28;20200;-81
2023/07/12 10:58:52;;;;;;;11.90;7.32;;;;;;;-143.21;36.87;70252.25;5131246;28;20332;-88
2023/07/12 11:01:50;;;;;;;11.93;6.78;;;;;;;-143.21;37.26;70216.59;5132387;28;20626;-87
2023/07/12 11:04:25;;;;;;;10.55;7.10;;;;;;;-143.21;36.54;70208.66;5129078;28;20639;-90
2023/07/12 11:06:59;;;;;;;7.85;6.15;;;;;;;-143.21;35.66;70192.81;5115808;28;20191;-91
2023/07/12 11:10:04;;;;;;;8.77;6.82;;;;;;;-143.21;36.32;70180.91;5114501;28;20255;-90